createdAt,value
2023-03-03T00:02:19.216Z,25.77
2023-03-03T00:07:23.189Z,26.47
2023-03-03T00:12:28.062Z,26.53
2023-03-03T00:17:31.922Z,27.07
2023-03-03T00:22:37.130Z,26.97
2023-03-03T00:27:38.680Z,27.07
2023-03-03T00:32:50.294Z,26.93
2023-03-03T00:37:55.582Z,28.30
2023-03-03T00:43:00.208Z,27.63
2023-03-03T00:48:17.589Z,27.67
2023-03-03T00:53:20.959Z,27.97
2023-03-03T00:58:23.558Z,26.07
2023-03-03T01:03:26.814Z,27.00
2023-03-03T01:08:29.007Z,27.47
2023-03-03T01:13:32.214Z,26.37
2023-03-03T01:18:35.233Z,27.83
2023-03-03T01:23:36.961Z,27.10
2023-03-03T01:28:38.548Z,28.23
2023-03-03T01:33:40.181Z,26.27
2023-03-03T01:38:41.799Z,27.90
2023-03-03T01:43:46.689Z,25.87
2023-03-03T01:48:48.423Z,25.90
2023-03-03T01:53:52.768Z,25.97
2023-03-03T01:59:01.070Z,25.87
2023-03-03T02:04:02.699Z,24.47
2023-03-03T02:09:33.763Z,23.83
2023-03-03T02:14:35.473Z,24.40
2023-03-03T02:19:51.248Z,24.60
2023-03-03T02:24:57.603Z,24.33
2023-03-03T02:30:10.015Z,24.30
2023-03-03T02:35:34.006Z,23.57
2023-03-03T02:40:40.978Z,23.80
2023-03-03T02:45:44.360Z,23.10
2023-03-03T02:50:46.079Z,23.50
2023-03-03T02:55:48.082Z,21.97
2023-03-03T03:00:50.289Z,22.20
2023-03-03T03:05:57.872Z,22.30
2023-03-03T03:11:00.249Z,21.27
2023-03-03T03:16:02.793Z,20.07
2023-03-03T03:21:12.641Z,19.53
2023-03-03T03:26:15.578Z,21.97
2023-03-03T03:31:19.584Z,20.97
2023-03-03T03:36:21.818Z,21.07
2023-03-03T03:41:23.844Z,19.20
2023-03-03T03:46:25.504Z,19.27
2023-03-03T03:51:27.478Z,19.17
2023-03-03T03:56:29.162Z,20.53
2023-03-03T04:01:33.754Z,19.37
2023-03-03T04:06:35.742Z,20.07
2023-03-03T04:11:39.080Z,19.37
2023-03-03T04:16:42.672Z,21.07
2023-03-03T04:21:45.310Z,19.30
2023-03-03T04:26:47.009Z,18.47
2023-03-03T04:31:51.462Z,18.57
2023-03-03T04:36:54.109Z,17.63
2023-03-03T04:41:56.205Z,17.67
2023-03-03T04:46:58.367Z,17.13
2023-03-03T04:52:00.280Z,17.10
2023-03-03T04:57:02.254Z,18.07
2023-03-03T05:02:05.345Z,18.80
2023-03-03T05:07:06.996Z,17.03
2023-03-03T05:12:08.749Z,18.20
2023-03-03T05:17:10.331Z,17.80
2023-03-03T05:22:11.932Z,16.40
2023-03-03T05:27:13.553Z,17.87
2023-03-03T05:32:15.564Z,17.83
2023-03-03T05:37:17.220Z,18.03
2023-03-03T05:42:19.178Z,17.43
2023-03-03T05:47:20.786Z,17.67
2023-03-03T05:52:24.230Z,17.03
2023-03-03T05:57:25.864Z,17.30
2023-03-03T06:02:27.580Z,17.70
2023-03-03T06:07:29.184Z,17.10
2023-03-03T06:12:30.977Z,17.97
2023-03-03T06:17:32.534Z,17.87
2023-03-03T06:22:34.268Z,18.53
2023-03-03T06:27:35.889Z,20.30
2023-03-03T06:32:37.480Z,18.70
2023-03-03T06:37:39.164Z,19.47
2023-03-03T06:42:40.849Z,19.13
2023-03-03T06:47:42.523Z,21.10
2023-03-03T06:52:44.360Z,18.10
2023-03-03T06:57:45.935Z,18.70
2023-03-03T07:02:50.443Z,18.00
2023-03-03T07:07:52.006Z,18.93
2023-03-03T07:12:54.777Z,17.77
2023-03-03T07:18:00.202Z,16.00
2023-03-03T07:23:21.657Z,16.60
2023-03-03T07:28:25.750Z,16.50
2023-03-03T07:33:34.356Z,16.43
2023-03-03T07:38:42.885Z,17.27
2023-03-03T07:43:55.001Z,17.80
2023-03-03T07:48:58.356Z,16.07
2023-03-03T07:54:18.444Z,16.30
2023-03-03T07:59:25.333Z,15.53
2023-03-03T08:04:41.718Z,15.23
2023-03-03T08:09:44.970Z,13.77
2023-03-03T08:14:47.088Z,13.13
2023-03-03T08:19:50.057Z,12.73
2023-03-03T08:24:51.655Z,13.40
2023-03-03T08:29:53.281Z,11.93
2023-03-03T08:34:55.085Z,11.53
2023-03-03T08:39:56.810Z,12.30
2023-03-03T08:44:58.413Z,12.53
2023-03-03T08:49:59.993Z,12.40
2023-03-03T08:55:01.602Z,12.37
2023-03-03T09:00:03.383Z,12.00
2023-03-03T09:05:05.919Z,11.40
2023-03-03T09:10:08.170Z,11.67
2023-03-03T09:15:15.208Z,11.13
2023-03-03T09:20:29.020Z,10.47
2023-03-03T09:25:32.162Z,10.40
2023-03-03T09:30:38.619Z,9.83
2023-03-03T09:35:41.792Z,9.10
2023-03-03T09:40:45.991Z,9.07
2023-03-03T09:45:59.749Z,8.80
2023-03-03T09:51:08.347Z,7.50
2023-03-03T09:56:21.365Z,7.53
2023-03-03T10:02:00.649Z,6.60
2023-03-03T10:07:39.017Z,6.67
2023-03-03T10:13:12.875Z,7.10
2023-03-03T10:18:32.904Z,6.83
2023-03-03T10:23:56.220Z,7.37
2023-03-03T10:29:31.159Z,6.20
2023-03-03T10:34:41.495Z,6.23
2023-03-03T10:39:46.174Z,6.30
2023-03-03T10:45:21.224Z,6.67
2023-03-03T10:50:46.335Z,6.63
2023-03-03T10:56:11.048Z,5.53
2023-03-03T11:01:48.071Z,5.90
2023-03-03T11:06:55.721Z,5.80
2023-03-03T11:12:22.792Z,5.70
2023-03-03T11:17:39.376Z,5.70
2023-03-03T11:22:55.023Z,5.83
2023-03-03T11:28:17.172Z,6.20
2023-03-03T11:33:37.218Z,5.87
2023-03-03T11:38:57.422Z,5.37
2023-03-03T11:44:45.706Z,6.03
2023-03-03T11:50:00.412Z,5.83
2023-03-03T11:55:19.171Z,5.53
2023-03-03T12:00:42.525Z,5.77
2023-03-03T12:05:53.163Z,6.37
2023-03-03T12:11:25.963Z,5.40
2023-03-03T12:16:52.795Z,5.37
2023-03-03T12:22:06.959Z,4.40
2023-03-03T12:27:17.247Z,4.53
2023-03-03T12:32:28.049Z,4.80
2023-03-03T12:38:07.814Z,4.43
2023-03-03T12:43:35.354Z,4.57
2023-03-03T12:48:37.047Z,3.67
2023-03-03T12:53:38.566Z,3.50
2023-03-03T12:58:48.741Z,3.40
2023-03-03T13:04:08.872Z,3.77
2023-03-03T13:09:37.308Z,3.93
2023-03-03T13:14:54.190Z,4.53
2023-03-03T13:20:00.976Z,4.40
2023-03-03T13:25:27.049Z,5.53
2023-03-03T13:30:33.644Z,5.30
2023-03-03T13:35:41.795Z,5.47
2023-03-03T13:40:46.611Z,5.07
2023-03-03T13:46:26.167Z,5.80
2023-03-03T13:51:43.052Z,4.97
2023-03-03T13:57:02.838Z,5.43
2023-03-03T14:02:29.727Z,5.53
2023-03-03T14:07:59.961Z,5.90
2023-03-03T14:13:13.254Z,5.43
2023-03-03T14:18:29.331Z,5.50
2023-03-03T14:23:50.621Z,5.20
2023-03-03T14:29:05.110Z,5.30
2023-03-03T14:34:09.484Z,4.93
2023-03-03T14:39:38.808Z,6.20
2023-03-03T14:44:46.361Z,6.07
2023-03-03T14:49:48.265Z,5.93
2023-03-03T14:54:56.050Z,6.23
2023-03-03T15:00:01.195Z,5.93
2023-03-03T15:05:16.799Z,6.63
2023-03-03T15:10:31.302Z,7.07
2023-03-03T15:15:32.928Z,5.73
2023-03-03T15:21:04.050Z,6.27
2023-03-03T15:26:19.629Z,5.63
2023-03-03T15:31:51.762Z,7.20
2023-03-03T15:36:57.235Z,6.10
2023-03-03T15:42:15.800Z,5.90
2023-03-03T15:47:46.608Z,7.33
2023-03-03T15:52:53.085Z,7.10
2023-03-03T15:58:42.737Z,7.77
2023-03-03T16:03:48.460Z,7.63
2023-03-03T16:08:52.869Z,7.90
2023-03-03T16:14:01.738Z,9.23
2023-03-03T16:19:14.066Z,10.27
2023-03-03T16:24:41.083Z,10.57
2023-03-03T16:29:57.715Z,11.70
2023-03-03T16:35:18.105Z,12.97
2023-03-03T16:40:23.991Z,12.33
2023-03-03T16:45:34.638Z,12.07
2023-03-03T16:51:02.477Z,10.93
2023-03-03T16:56:06.723Z,12.00
2023-03-03T17:01:25.344Z,13.37
2023-03-03T17:06:35.787Z,13.40
2023-03-03T17:12:00.640Z,12.43
2023-03-03T17:17:12.162Z,11.97
2023-03-03T17:22:21.198Z,12.90
2023-03-03T17:27:40.904Z,12.80
2023-03-03T17:33:17.210Z,12.47
2023-03-03T17:38:55.412Z,13.97
2023-03-03T17:44:02.724Z,14.43
2023-03-03T17:49:25.825Z,14.70
2023-03-03T17:54:33.141Z,16.67
2023-03-03T18:00:01.079Z,17.00
2023-03-03T18:05:18.944Z,16.63
2023-03-03T18:10:39.039Z,15.63
2023-03-03T18:16:11.290Z,16.20
2023-03-03T18:21:22.349Z,17.50
2023-03-03T18:26:33.756Z,16.83
2023-03-03T18:31:52.535Z,18.77
2023-03-03T18:36:56.165Z,18.17
2023-03-03T18:42:05.804Z,18.30
2023-03-03T18:47:07.636Z,17.73
2023-03-03T18:52:38.672Z,17.70
2023-03-03T18:57:40.292Z,18.63
2023-03-03T19:02:52.122Z,18.03
2023-03-03T19:07:58.212Z,18.07
2023-03-03T19:13:00.082Z,17.77
2023-03-03T19:18:03.707Z,18.07
2023-03-03T19:23:07.406Z,15.80
2023-03-03T19:28:11.742Z,17.23
2023-03-03T19:33:23.414Z,15.63
2023-03-03T19:38:56.415Z,16.07
2023-03-03T19:44:42.862Z,16.13
2023-03-03T19:49:57.704Z,16.93
2023-03-03T19:55:02.242Z,16.27
2023-03-03T20:00:32.662Z,14.80
2023-03-03T20:05:46.209Z,16.10
2023-03-03T20:10:48.663Z,16.10
2023-03-03T20:16:03.477Z,15.80
2023-03-03T20:21:20.315Z,15.70
2023-03-03T20:26:27.232Z,15.83
2023-03-03T20:32:06.745Z,15.97
2023-03-03T20:37:38.717Z,15.87
2023-03-03T20:42:52.844Z,16.50
2023-03-03T20:48:32.304Z,15.90
2023-03-03T20:53:39.511Z,15.87
2023-03-03T20:58:56.360Z,16.53
2023-03-03T21:04:19.880Z,16.00
2023-03-03T21:09:26.727Z,17.90
2023-03-03T21:14:35.751Z,16.53
2023-03-03T21:19:37.449Z,17.47
2023-03-03T21:24:56.609Z,17.17
2023-03-03T21:30:17.164Z,19.00
2023-03-03T21:35:23.471Z,19.10
2023-03-03T21:40:29.442Z,19.63
2023-03-03T21:45:31.061Z,20.40
2023-03-03T21:50:35.541Z,19.73
2023-03-03T21:55:37.117Z,22.00
2023-03-03T22:00:39.783Z,21.53
2023-03-03T22:05:41.727Z,22.17
2023-03-03T22:10:43.368Z,22.87
2023-03-03T22:15:44.957Z,21.67
2023-03-03T22:20:48.073Z,22.27
2023-03-03T22:25:49.832Z,22.80
2023-03-03T22:30:51.481Z,21.87
2023-03-03T22:35:53.154Z,22.17
2023-03-03T22:40:55.719Z,21.90
2023-03-03T22:45:57.777Z,21.20
2023-03-03T22:50:59.457Z,20.77
2023-03-03T22:56:01.309Z,20.90
2023-03-03T23:01:04.720Z,20.13
2023-03-03T23:06:06.616Z,18.40
2023-03-03T23:11:08.267Z,17.93
2023-03-03T23:16:09.936Z,17.70
2023-03-03T23:21:11.622Z,16.03
2023-03-03T23:26:13.274Z,17.27
2023-03-03T23:31:14.914Z,16.57
2023-03-03T23:36:16.606Z,16.03
2023-03-03T23:41:18.214Z,16.73
2023-03-03T23:46:19.780Z,16.00
2023-03-03T23:51:21.378Z,16.13
2023-03-03T23:56:23.004Z,16.23
